createdAt,value
2022-12-23T00:02:30.172Z,6.18
2022-12-23T00:05:37.975Z,5.85
2022-12-23T00:08:43.545Z,6.00
2022-12-23T00:12:03.747Z,5.90
2022-12-23T00:15:06.542Z,5.85
2022-12-23T00:18:08.269Z,5.25
2022-12-23T00:21:17.535Z,4.70
2022-12-23T00:24:19.146Z,3.45
2022-12-23T00:27:20.773Z,2.80
2022-12-23T00:30:22.467Z,2.65
2022-12-23T00:33:27.510Z,2.40
2022-12-23T00:36:30.361Z,2.28
2022-12-23T00:39:54.919Z,2.53
2022-12-23T00:42:57.268Z,2.42
2022-12-23T00:45:59.189Z,2.70
2022-12-23T00:49:19.810Z,3.20
2022-12-23T00:52:21.537Z,3.20
2022-12-23T00:55:23.583Z,3.50
2022-12-23T00:58:28.393Z,3.25
2022-12-23T01:01:49.180Z,3.65
2022-12-23T01:05:10.367Z,3.15
2022-12-23T01:08:12.693Z,3.15
2022-12-23T01:11:14.642Z,2.45
2022-12-23T01:14:17.733Z,2.40
2022-12-23T01:17:19.514Z,2.47
2022-12-23T01:20:21.504Z,2.47
2022-12-23T01:23:23.166Z,2.33
2022-12-23T01:26:25.024Z,2.67
2022-12-23T01:29:29.930Z,3.03
2022-12-23T01:32:31.696Z,3.00
2022-12-23T01:35:33.309Z,3.15
2022-12-23T01:38:35.723Z,3.40
2022-12-23T01:41:56.044Z,3.42
2022-12-23T01:45:17.514Z,3.25
2022-12-23T01:48:26.617Z,3.10
2022-12-23T01:51:30.355Z,3.38
2022-12-23T01:54:32.852Z,3.40
2022-12-23T01:57:37.377Z,3.03
2022-12-23T02:01:01.216Z,3.83
2022-12-23T02:04:07.587Z,3.03
2022-12-23T02:07:29.591Z,2.92
2022-12-23T02:10:45.436Z,3.60
2022-12-23T02:14:30.609Z,2.80
2022-12-23T02:18:00.304Z,2.30
2022-12-23T02:21:17.340Z,2.35
2022-12-23T02:24:52.865Z,2.33
2022-12-23T02:28:21.677Z,2.47
2022-12-23T02:31:46.980Z,2.83
2022-12-23T02:35:24.954Z,3.35
2022-12-23T02:38:55.151Z,3.17
2022-12-23T02:42:09.412Z,3.40
2022-12-23T02:45:21.534Z,4.30
2022-12-23T02:48:42.962Z,4.40
2022-12-23T02:51:50.191Z,4.45
2022-12-23T02:54:56.667Z,4.75
2022-12-23T02:58:02.791Z,5.22
2022-12-23T03:01:07.077Z,4.82
2022-12-23T03:04:09.193Z,5.03
2022-12-23T03:07:22.915Z,10.77
2022-12-23T03:10:59.197Z,6.03
2022-12-23T03:14:13.241Z,5.13
2022-12-23T03:17:50.534Z,12.57
2022-12-23T03:21:00.171Z,15.18
2022-12-23T03:24:16.161Z,6.18
2022-12-23T03:27:36.289Z,4.75
2022-12-23T03:30:43.346Z,6.30
2022-12-23T03:33:51.991Z,13.45
2022-12-23T03:36:57.540Z,9.52
2022-12-23T03:40:07.141Z,6.65
2022-12-23T03:43:25.966Z,6.43
2022-12-23T03:46:42.607Z,14.38
2022-12-23T03:49:57.371Z,6.53
2022-12-23T03:53:10.091Z,7.97
2022-12-23T03:56:32.160Z,5.70
2022-12-23T03:59:39.430Z,5.15
2022-12-23T04:03:22.331Z,2.60
2022-12-23T04:06:27.341Z,1.80
2022-12-23T04:09:29.558Z,1.58
2022-12-23T04:12:32.082Z,1.85
2022-12-23T04:15:38.236Z,1.98
2022-12-23T04:18:40.128Z,2.08
2022-12-23T04:21:41.906Z,2.08
2022-12-23T04:24:43.853Z,2.17
2022-12-23T04:27:45.778Z,2.53
2022-12-23T04:30:47.569Z,2.70
2022-12-23T04:33:49.181Z,2.95
2022-12-23T04:36:51.124Z,2.97
2022-12-23T04:39:53.051Z,2.55
2022-12-23T04:42:54.807Z,2.80
2022-12-23T04:45:56.628Z,2.95
2022-12-23T04:48:58.441Z,2.95
2022-12-23T04:52:00.461Z,3.20
2022-12-23T04:55:02.324Z,2.90
2022-12-23T04:58:04.419Z,3.33
2022-12-23T05:01:09.228Z,3.88
2022-12-23T05:04:11.761Z,3.53
2022-12-23T05:07:13.626Z,3.95
2022-12-23T05:10:15.751Z,3.97
2022-12-23T05:13:17.775Z,4.43
2022-12-23T05:16:19.909Z,4.65
2022-12-23T05:19:21.820Z,5.18
2022-12-23T05:22:23.683Z,5.45
2022-12-23T05:25:25.737Z,6.25
2022-12-23T05:28:27.903Z,6.47
2022-12-23T05:31:29.708Z,7.15
2022-12-23T05:34:31.655Z,6.43
2022-12-23T05:37:33.635Z,5.97
2022-12-23T05:40:35.610Z,6.90
2022-12-23T05:43:40.275Z,7.03
2022-12-23T05:46:42.214Z,7.18
2022-12-23T05:49:44.333Z,7.53
2022-12-23T05:52:46.100Z,7.45
2022-12-23T05:55:48.608Z,7.28
2022-12-23T05:58:56.774Z,7.90
2022-12-23T06:01:58.880Z,7.50
2022-12-23T06:05:00.741Z,7.00
2022-12-23T06:08:02.649Z,7.35
2022-12-23T06:11:06.022Z,6.95
2022-12-23T06:14:07.896Z,7.50
2022-12-23T06:17:09.679Z,7.63
2022-12-23T06:20:19.722Z,7.88
2022-12-23T06:23:22.387Z,6.60
2022-12-23T06:26:24.497Z,6.95
2022-12-23T06:29:26.631Z,6.45
2022-12-23T06:32:31.599Z,5.80
2022-12-23T06:35:38.025Z,6.45
2022-12-23T06:38:39.916Z,6.53
2022-12-23T06:41:41.730Z,6.85
2022-12-23T06:44:43.627Z,7.63
2022-12-23T06:47:45.544Z,6.47
2022-12-23T06:50:47.535Z,6.90
2022-12-23T06:53:49.890Z,7.30
2022-12-23T06:56:51.880Z,7.78
2022-12-23T06:59:53.665Z,8.05
2022-12-23T07:02:55.578Z,7.85
2022-12-23T07:05:57.269Z,10.05
2022-12-23T07:08:59.029Z,9.35
2022-12-23T07:12:03.322Z,10.38
2022-12-23T07:15:06.226Z,9.52
2022-12-23T07:18:08.074Z,8.18
2022-12-23T07:21:18.788Z,8.52
2022-12-23T07:24:26.643Z,8.65
2022-12-23T07:27:28.576Z,8.27
2022-12-23T07:30:30.456Z,7.50
2022-12-23T07:33:32.330Z,9.35
2022-12-23T07:36:34.178Z,10.80
2022-12-23T07:39:36.885Z,7.60
2022-12-23T07:42:46.956Z,9.35
2022-12-23T07:45:53.918Z,9.93
2022-12-23T07:49:01.123Z,9.05
2022-12-23T07:52:03.032Z,9.10
2022-12-23T07:55:05.738Z,9.63
2022-12-23T07:58:07.586Z,8.82
2022-12-23T08:01:09.473Z,7.55
2022-12-23T08:04:14.248Z,8.88
2022-12-23T08:07:16.242Z,8.18
2022-12-23T08:10:20.607Z,9.02
2022-12-23T08:13:22.517Z,11.38
2022-12-23T08:16:25.389Z,11.63
2022-12-23T08:19:27.362Z,8.73
2022-12-23T08:22:33.564Z,9.57
2022-12-23T08:25:35.648Z,8.05
2022-12-23T08:28:39.433Z,8.45
2022-12-23T08:31:41.118Z,9.63
2022-12-23T08:34:43.261Z,9.10
2022-12-23T08:37:46.298Z,9.93
2022-12-23T08:40:48.296Z,9.75
2022-12-23T08:43:50.658Z,10.73
2022-12-23T08:46:58.203Z,10.65
2022-12-23T08:50:05.338Z,11.38
2022-12-23T08:53:11.783Z,9.93
2022-12-23T08:56:23.121Z,10.38
2022-12-23T08:59:28.187Z,11.07
2022-12-23T09:02:34.738Z,13.70
2022-12-23T09:05:44.483Z,11.65
2022-12-23T09:08:51.928Z,13.05
2022-12-23T09:11:56.995Z,11.70
2022-12-23T09:14:59.129Z,12.75
2022-12-23T09:18:03.864Z,12.85
2022-12-23T09:21:08.134Z,11.80
2022-12-23T09:24:10.277Z,12.45
2022-12-23T09:27:12.579Z,12.20
2022-12-23T09:30:17.068Z,12.10
2022-12-23T09:33:19.985Z,12.90
2022-12-23T09:36:22.637Z,12.10
2022-12-23T09:39:24.681Z,12.93
2022-12-23T09:42:57.150Z,13.40
2022-12-23T09:46:01.743Z,11.43
2022-12-23T09:49:11.502Z,13.38
2022-12-23T09:52:22.615Z,13.18
2022-12-23T09:58:34.815Z,11.27
2022-12-23T10:01:57.826Z,13.50
2022-12-23T10:05:37.446Z,10.52
2022-12-23T10:08:48.818Z,11.18
2022-12-23T10:11:52.453Z,11.90
2022-12-23T10:14:57.304Z,11.25
2022-12-23T10:18:41.775Z,12.05
2022-12-23T10:21:49.047Z,14.10
2022-12-23T10:24:51.537Z,11.77
2022-12-23T10:27:53.356Z,11.43
2022-12-23T10:31:38.665Z,10.38
2022-12-23T10:34:44.563Z,10.18
2022-12-23T10:38:02.355Z,10.32
2022-12-23T10:41:31.662Z,10.80
2022-12-23T10:44:58.236Z,12.30
2022-12-23T10:48:30.363Z,10.38
2022-12-23T10:51:57.843Z,9.43
2022-12-23T10:54:59.885Z,9.73
2022-12-23T10:58:18.611Z,11.15
2022-12-23T11:01:27.111Z,10.57
2022-12-23T11:04:39.060Z,10.20
2022-12-23T11:07:45.148Z,9.80
2022-12-23T11:10:48.927Z,10.55
2022-12-23T11:13:51.241Z,9.60
2022-12-23T11:16:53.166Z,11.00
2022-12-23T11:20:13.777Z,10.38
2022-12-23T11:23:33.336Z,9.77
2022-12-23T11:26:36.060Z,9.52
2022-12-23T11:29:44.084Z,10.27
2022-12-23T11:32:46.203Z,8.35
2022-12-23T11:35:48.249Z,8.73
2022-12-23T11:38:53.786Z,9.63
2022-12-23T11:42:04.925Z,10.35
2022-12-23T11:45:07.897Z,10.25
2022-12-23T11:48:28.425Z,9.80
2022-12-23T11:51:30.555Z,9.00
2022-12-23T11:54:33.583Z,7.85
2022-12-23T11:57:49.276Z,11.90
2022-12-23T12:00:58.003Z,10.15
2022-12-23T12:04:18.117Z,10.77
2022-12-23T12:07:20.266Z,12.25
2022-12-23T12:10:28.137Z,13.90
2022-12-23T12:13:36.814Z,11.10
2022-12-23T12:17:05.941Z,10.82
2022-12-23T12:20:17.897Z,12.63
2022-12-23T12:23:48.945Z,10.90
2022-12-23T12:30:08.027Z,12.75
2022-12-23T12:33:26.515Z,12.10
2022-12-23T12:36:49.953Z,13.73
2022-12-23T12:39:56.665Z,12.20
2022-12-23T12:43:26.330Z,11.75
2022-12-23T12:46:45.277Z,10.35
2022-12-23T12:49:57.905Z,12.07
2022-12-23T12:53:06.739Z,13.35
2022-12-23T12:56:27.276Z,12.50
2022-12-23T12:59:34.837Z,12.68
2022-12-23T13:03:01.607Z,11.80
2022-12-23T13:06:30.041Z,11.27
2022-12-23T13:09:40.346Z,9.55
2022-12-23T13:13:07.547Z,10.13
2022-12-23T13:16:26.976Z,10.93
2022-12-23T13:19:54.255Z,11.63
2022-12-23T13:23:44.026Z,9.38
2022-12-23T13:27:15.621Z,10.45
2022-12-23T13:30:20.762Z,11.27
2022-12-23T13:33:41.739Z,10.73
2022-12-23T13:40:12.352Z,11.80
2022-12-23T13:43:19.089Z,12.00
2022-12-23T13:46:49.901Z,12.13
2022-12-23T13:50:14.874Z,11.63
2022-12-23T13:53:29.493Z,11.23
2022-12-23T13:56:58.285Z,11.18
2022-12-23T14:00:19.903Z,10.68
2022-12-23T14:03:33.839Z,12.55
2022-12-23T14:06:36.968Z,12.00
2022-12-23T14:09:39.282Z,11.88
2022-12-23T14:12:42.905Z,11.73
2022-12-23T14:16:10.215Z,11.45
2022-12-23T14:19:49.584Z,9.93
2022-12-23T14:23:04.894Z,11.10
2022-12-23T14:26:34.066Z,10.77
2022-12-23T14:29:57.414Z,11.40
2022-12-23T14:33:14.714Z,12.20
2022-12-23T14:36:24.109Z,10.25
2022-12-23T14:39:31.998Z,12.82
2022-12-23T14:42:41.932Z,10.43
2022-12-23T14:45:44.388Z,10.27
2022-12-23T14:48:46.050Z,14.10
2022-12-23T14:51:50.865Z,11.32
2022-12-23T14:55:27.943Z,11.32
2022-12-23T14:58:32.518Z,10.25
2022-12-23T15:01:50.773Z,10.45
2022-12-23T15:04:58.096Z,10.35
2022-12-23T15:07:59.874Z,10.05
2022-12-23T15:11:01.982Z,12.18
2022-12-23T15:14:09.050Z,10.88
2022-12-23T15:17:37.567Z,11.68
2022-12-23T15:20:39.824Z,9.82
2022-12-23T15:23:49.551Z,11.23
2022-12-23T15:27:24.518Z,11.45
2022-12-23T15:30:15.984Z,9.25
2022-12-23T15:34:00.874Z,9.98
2022-12-23T15:36:45.992Z,10.43
2022-12-23T15:39:52.378Z,10.07
2022-12-23T15:43:01.354Z,10.63
2022-12-23T15:46:25.143Z,9.68
2022-12-23T15:49:31.325Z,10.18
2022-12-23T15:52:34.995Z,9.13
2022-12-23T15:55:41.621Z,10.55
2022-12-23T15:58:47.577Z,10.15
2022-12-23T16:01:50.960Z,10.32
2022-12-23T16:05:00.775Z,10.10
2022-12-23T16:08:28.240Z,10.38
2022-12-23T16:11:57.524Z,10.25
2022-12-23T16:15:01.865Z,10.55
2022-12-23T16:18:21.884Z,10.63
2022-12-23T16:21:28.435Z,10.17
2022-12-23T16:24:30.487Z,9.65
2022-12-23T16:27:48.587Z,11.85
2022-12-23T16:30:56.453Z,10.73
2022-12-23T16:34:00.288Z,9.45
2022-12-23T16:37:03.410Z,10.60
2022-12-23T16:40:19.043Z,11.52
2022-12-23T16:43:23.497Z,11.20
2022-12-23T16:46:31.867Z,12.30
2022-12-23T16:49:36.964Z,10.77
2022-12-23T16:52:39.397Z,11.07
2022-12-23T16:55:50.268Z,11.85
2022-12-23T16:58:56.562Z,11.38
2022-12-23T17:02:03.497Z,12.27
2022-12-23T17:05:07.808Z,9.60
2022-12-23T17:08:10.278Z,9.13
2022-12-23T17:11:23.410Z,9.52
2022-12-23T17:14:25.997Z,8.88
2022-12-23T17:17:28.284Z,10.18
2022-12-23T17:20:30.849Z,9.68
2022-12-23T17:23:33.123Z,10.77
2022-12-23T17:26:36.053Z,9.95
2022-12-23T17:29:39.105Z,9.80
2022-12-23T17:32:41.689Z,8.32
2022-12-23T17:35:44.434Z,9.00
2022-12-23T17:38:46.642Z,9.73
2022-12-23T17:41:49.280Z,8.63
2022-12-23T17:44:53.615Z,10.68
2022-12-23T17:47:56.354Z,9.85
2022-12-23T17:50:58.513Z,10.40
2022-12-23T17:54:01.159Z,9.50
2022-12-23T17:57:03.334Z,9.52
2022-12-23T18:00:05.997Z,10.88
2022-12-23T18:03:31.098Z,9.75
2022-12-23T18:06:35.121Z,10.45
2022-12-23T18:09:39.917Z,12.00
2022-12-23T18:12:45.883Z,9.57
2022-12-23T18:15:47.950Z,9.70
2022-12-23T18:18:50.289Z,8.68
2022-12-23T18:21:52.786Z,8.73
2022-12-23T18:24:59.429Z,8.88
2022-12-23T18:28:02.095Z,8.90
2022-12-23T18:31:31.045Z,8.43
2022-12-23T18:34:33.303Z,8.65
2022-12-23T18:37:35.663Z,9.15
2022-12-23T18:40:38.762Z,10.00
2022-12-23T18:43:43.588Z,8.57
2022-12-23T18:46:51.752Z,9.27
2022-12-23T18:49:58.202Z,8.55
2022-12-23T18:53:06.197Z,10.07
2022-12-23T18:56:16.291Z,8.85
2022-12-23T18:59:27.370Z,9.87
2022-12-23T19:02:38.913Z,9.02
2022-12-23T19:05:53.009Z,9.07
2022-12-23T19:09:01.207Z,8.15
2022-12-23T19:12:09.630Z,8.93
2022-12-23T19:15:33.623Z,9.02
2022-12-23T19:18:38.458Z,9.10
2022-12-23T19:21:41.774Z,10.00
2022-12-23T19:25:04.010Z,8.63
2022-12-23T19:28:07.968Z,8.32
2022-12-23T19:31:16.707Z,11.48
2022-12-23T19:34:19.865Z,10.02
2022-12-23T19:37:21.652Z,8.05
2022-12-23T19:40:23.876Z,9.38
2022-12-23T19:43:25.587Z,9.02
2022-12-23T19:46:27.380Z,7.63
2022-12-23T19:49:31.419Z,7.93
2022-12-23T19:52:35.584Z,9.07
2022-12-23T19:55:46.972Z,7.50
2022-12-23T19:58:50.313Z,6.47
2022-12-23T20:01:52.409Z,6.05
2022-12-23T20:04:57.252Z,6.10
2022-12-23T20:08:00.173Z,5.70
2022-12-23T20:11:11.879Z,5.35
2022-12-23T20:14:15.858Z,5.22
2022-12-23T20:17:18.108Z,4.93
2022-12-23T20:20:20.352Z,5.15
2022-12-23T20:23:22.821Z,5.00
2022-12-23T20:26:25.065Z,5.45
2022-12-23T20:29:27.119Z,6.05
2022-12-23T20:32:29.398Z,5.80
2022-12-23T20:35:35.740Z,5.43
2022-12-23T20:38:41.859Z,6.68
2022-12-23T20:41:44.215Z,7.60
2022-12-23T20:44:47.032Z,7.40
2022-12-23T20:47:49.212Z,9.52
2022-12-23T20:50:54.208Z,9.23
2022-12-23T20:53:59.875Z,9.30
2022-12-23T20:57:02.532Z,10.02
2022-12-23T21:00:05.580Z,9.57
2022-12-23T21:03:10.612Z,9.95
2022-12-23T21:06:13.242Z,10.23
2022-12-23T21:09:15.875Z,11.20
2022-12-23T21:12:18.258Z,10.40
2022-12-23T21:15:23.048Z,10.95
2022-12-23T21:18:25.736Z,10.95
2022-12-23T21:21:35.088Z,10.20
2022-12-23T21:24:37.546Z,10.35
2022-12-23T21:27:39.304Z,9.90
2022-12-23T21:30:43.736Z,11.18
2022-12-23T21:33:48.152Z,12.25
2022-12-23T21:36:50.158Z,10.07
2022-12-23T21:39:52.210Z,11.35
2022-12-23T21:42:54.895Z,12.32
2022-12-23T21:46:03.551Z,10.75
2022-12-23T21:49:05.344Z,11.50
2022-12-23T21:52:07.863Z,11.07
2022-12-23T21:55:11.259Z,10.95
2022-12-23T21:58:13.400Z,12.07
2022-12-23T22:01:17.406Z,11.88
2022-12-23T22:04:19.634Z,12.13
2022-12-23T22:07:21.763Z,12.02
2022-12-23T22:10:23.651Z,14.30
2022-12-23T22:13:26.615Z,11.82
2022-12-23T22:16:31.800Z,11.27
2022-12-23T22:19:36.016Z,12.52
2022-12-23T22:22:38.104Z,10.68
2022-12-23T22:25:41.108Z,9.63
2022-12-23T22:28:43.994Z,10.98
2022-12-23T22:31:50.535Z,10.25
2022-12-23T22:34:52.893Z,8.13
2022-12-23T22:37:55.148Z,10.40
2022-12-23T22:40:56.993Z,9.85
2022-12-23T22:43:59.609Z,7.63
2022-12-23T22:47:04.970Z,7.25
2022-12-23T22:50:07.769Z,7.50
2022-12-23T22:53:13.342Z,7.78
2022-12-23T22:56:17.249Z,6.68
2022-12-23T22:59:23.322Z,6.90
2022-12-23T23:02:25.809Z,7.38
2022-12-23T23:05:31.046Z,6.85
2022-12-23T23:08:36.717Z,8.00
2022-12-23T23:11:40.035Z,8.07
2022-12-23T23:15:09.561Z,7.40
2022-12-23T23:18:11.408Z,5.85
2022-12-23T23:21:14.894Z,6.72
2022-12-23T23:24:17.585Z,7.40
2022-12-23T23:27:20.642Z,7.38
2022-12-23T23:30:22.698Z,8.23
2022-12-23T23:33:24.716Z,7.47
2022-12-23T23:36:28.854Z,7.32
2022-12-23T23:39:34.808Z,6.45
2022-12-23T23:42:51.797Z,7.38
2022-12-23T23:45:54.469Z,7.40
2022-12-23T23:48:57.027Z,6.30
2022-12-23T23:51:58.976Z,7.45
2022-12-23T23:55:02.328Z,6.57
2022-12-23T23:58:07.983Z,7.00
